KCMA

Camarillo Airport

Camarillo, California, USA
METAR KCMA 110155Z 00000KT 10SM CLR 16/12 A3002 RMK AO2 SLP173 T01610117
Observed Flight Rules
Dec-11 @ 01:55 UTC (55 minutes ago) Visual Flight Rules
Visibility Clouds
10 miles
  • Clear skies
Temperatures Readings
Current 16°C / 61°F
Dewpoint 12°C / 54°F
Humidity 77%
Altimeter 30.02" Hg
Pressure 1017.3 hPa
Elevation 23
METAR KCMA 110155Z 00000KT 10SM CLR 16/12 A3002 RMK AO2 SLP173 T01610117
Observed Flight Rules
Dec-11 @ 01:55 UTC
(55 minutes ago)
VFR
Clouds
  • Clear skies
Temperature Dewpoint
16°C / 61°F 12°C / 54°F
Humidity Altimeter Pressure
77% 30.02" Hg 1017.3 hPa